sensor_id;sensor_type;location;lat;lon;timestamp;temperature;humidity
4050;DHT22;2039;50.894;6.888;2022-07-03T00:00:43;21.40;1.00
4050;DHT22;2039;50.894;6.888;2022-07-03T00:03:08;21.40;1.00
4050;DHT22;2039;50.894;6.888;2022-07-03T00:05:35;21.40;1.00
4050;DHT22;2039;50.894;6.888;2022-07-03T00:08:03;21.30;1.00
4050;DHT22;2039;50.894;6.888;2022-07-03T00:10:28;21.30;1.00
4050;DHT22;2039;50.894;6.888;2022-07-03T00:12:54;21.30;1.00
4050;DHT22;2039;50.894;6.888;2022-07-03T00:15:20;21.20;1.00
4050;DHT22;2039;50.894;6.888;2022-07-03T00:17:45;21.20;1.00
4050;DHT22;2039;50.894;6.888;2022-07-03T00:20:11;21.20;1.10
4050;DHT22;2039;50.894;6.888;2022-07-03T00:22:41;21.10;1.60
4050;DHT22;2039;50.894;6.888;2022-07-03T00:25:11;21.10;2.90
4050;DHT22;2039;50.894;6.888;2022-07-03T00:27:39;21.10;3.30
4050;DHT22;2039;50.894;6.888;2022-07-03T00:30:06;21.00;3.90
4050;DHT22;2039;50.894;6.888;2022-07-03T00:32:38;21.00;3.50
4050;DHT22;2039;50.894;6.888;2022-07-03T00:35:05;20.90;4.10
4050;DHT22;2039;50.894;6.888;2022-07-03T00:37:31;20.90;5.00
4050;DHT22;2039;50.894;6.888;2022-07-03T00:39:57;20.90;4.70
4050;DHT22;2039;50.894;6.888;2022-07-03T00:42:23;20.90;6.50
4050;DHT22;2039;50.894;6.888;2022-07-03T00:44:51;20.90;7.10
4050;DHT22;2039;50.894;6.888;2022-07-03T00:47:19;20.90;8.80
4050;DHT22;2039;50.894;6.888;2022-07-03T00:49:47;20.80;10.20
4050;DHT22;2039;50.894;6.888;2022-07-03T00:52:14;20.80;12.50
4050;DHT22;2039;50.894;6.888;2022-07-03T00:54:55;20.70;14.00
4050;DHT22;2039;50.894;6.888;2022-07-03T00:57:22;20.70;17.40
4050;DHT22;2039;50.894;6.888;2022-07-03T00:59:48;20.70;17.50
4050;DHT22;2039;50.894;6.888;2022-07-03T01:02:38;20.70;17.50
4050;DHT22;2039;50.894;6.888;2022-07-03T01:08:48;20.80;19.40
4050;DHT22;2039;50.894;6.888;2022-07-03T01:17:07;20.80;22.50
4050;DHT22;2039;50.894;6.888;2022-07-03T01:19:37;20.70;22.60
4050;DHT22;2039;50.894;6.888;2022-07-03T01:25:07;20.60;25.40
4050;DHT22;2039;50.894;6.888;2022-07-03T01:30:10;20.50;28.90
4050;DHT22;2039;50.894;6.888;2022-07-03T01:32:47;20.40;31.30
4050;DHT22;2039;50.894;6.888;2022-07-03T01:35:21;20.40;31.80
4050;DHT22;2039;50.894;6.888;2022-07-03T01:37:48;20.40;33.60
4050;DHT22;2039;50.894;6.888;2022-07-03T01:40:17;20.30;35.00
4050;DHT22;2039;50.894;6.888;2022-07-03T01:42:45;20.30;36.10
4050;DHT22;2039;50.894;6.888;2022-07-03T01:45:13;20.30;36.50
4050;DHT22;2039;50.894;6.888;2022-07-03T01:47:41;20.30;37.20
4050;DHT22;2039;50.894;6.888;2022-07-03T01:50:11;20.30;37.60
4050;DHT22;2039;50.894;6.888;2022-07-03T01:52:40;20.20;40.20
4050;DHT22;2039;50.894;6.888;2022-07-03T01:55:08;20.20;39.40
4050;DHT22;2039;50.894;6.888;2022-07-03T01:57:49;20.20;40.10
4050;DHT22;2039;50.894;6.888;2022-07-03T02:00:20;20.20;38.80
4050;DHT22;2039;50.894;6.888;2022-07-03T02:03:02;20.20;38.00
4050;DHT22;2039;50.894;6.888;2022-07-03T02:05:33;20.20;39.90
4050;DHT22;2039;50.894;6.888;2022-07-03T02:08:22;20.20;41.20
4050;DHT22;2039;50.894;6.888;2022-07-03T02:11:21;20.10;41.20
4050;DHT22;2039;50.894;6.888;2022-07-03T02:13:55;20.10;42.20
4050;DHT22;2039;50.894;6.888;2022-07-03T02:16:27;20.10;43.10
4050;DHT22;2039;50.894;6.888;2022-07-03T02:18:57;20.10;44.80
4050;DHT22;2039;50.894;6.888;2022-07-03T02:21:27;20.10;44.60
4050;DHT22;2039;50.894;6.888;2022-07-03T02:26:34;20.00;44.90
4050;DHT22;2039;50.894;6.888;2022-07-03T02:29:12;20.00;45.50
4050;DHT22;2039;50.894;6.888;2022-07-03T02:31:48;19.90;46.10
4050;DHT22;2039;50.894;6.888;2022-07-03T02:34:23;19.90;47.00
4050;DHT22;2039;50.894;6.888;2022-07-03T02:36:55;19.90;48.10
4050;DHT22;2039;50.894;6.888;2022-07-03T02:39:41;19.80;48.80
4050;DHT22;2039;50.894;6.888;2022-07-03T02:42:19;19.80;48.40
4050;DHT22;2039;50.894;6.888;2022-07-03T02:44:46;19.90;48.20
4050;DHT22;2039;50.894;6.888;2022-07-03T02:50:08;19.80;48.90
4050;DHT22;2039;50.894;6.888;2022-07-03T02:52:44;19.80;49.80
4050;DHT22;2039;50.894;6.888;2022-07-03T03:01:03;19.70;52.80
4050;DHT22;2039;50.894;6.888;2022-07-03T03:03:32;19.70;53.40
4050;DHT22;2039;50.894;6.888;2022-07-03T03:06:13;19.60;53.90
4050;DHT22;2039;50.894;6.888;2022-07-03T03:08:51;19.50;56.00
4050;DHT22;2039;50.894;6.888;2022-07-03T03:11:41;19.50;55.90
4050;DHT22;2039;50.894;6.888;2022-07-03T03:14:15;19.50;55.90
4050;DHT22;2039;50.894;6.888;2022-07-03T03:16:52;19.50;56.60
4050;DHT22;2039;50.894;6.888;2022-07-03T03:19:25;19.50;56.80
4050;DHT22;2039;50.894;6.888;2022-07-03T03:24:51;19.40;57.70
4050;DHT22;2039;50.894;6.888;2022-07-03T03:27:21;19.40;58.10
4050;DHT22;2039;50.894;6.888;2022-07-03T03:29:54;19.40;57.60
4050;DHT22;2039;50.894;6.888;2022-07-03T03:32:23;19.30;59.20
4050;DHT22;2039;50.894;6.888;2022-07-03T03:34:50;19.30;58.50
4050;DHT22;2039;50.894;6.888;2022-07-03T03:37:18;19.30;60.40
4050;DHT22;2039;50.894;6.888;2022-07-03T03:39:47;19.30;59.90
4050;DHT22;2039;50.894;6.888;2022-07-03T03:42:13;19.30;60.30
4050;DHT22;2039;50.894;6.888;2022-07-03T03:44:41;19.30;61.40
4050;DHT22;2039;50.894;6.888;2022-07-03T03:47:13;19.30;61.40
4050;DHT22;2039;50.894;6.888;2022-07-03T03:49:39;19.30;61.30
4050;DHT22;2039;50.894;6.888;2022-07-03T03:52:05;19.30;60.30
4050;DHT22;2039;50.894;6.888;2022-07-03T03:54:33;19.30;61.60
4050;DHT22;2039;50.894;6.888;2022-07-03T03:57:20;19.20;64.00
4050;DHT22;2039;50.894;6.888;2022-07-03T03:59:46;19.20;65.30
4050;DHT22;2039;50.894;6.888;2022-07-03T04:02:18;19.20;64.80
4050;DHT22;2039;50.894;6.888;2022-07-03T04:04:45;19.20;67.80
4050;DHT22;2039;50.894;6.888;2022-07-03T04:07:19;19.20;67.20
4050;DHT22;2039;50.894;6.888;2022-07-03T04:09:48;19.20;67.10
4050;DHT22;2039;50.894;6.888;2022-07-03T04:12:16;19.30;67.20
4050;DHT22;2039;50.894;6.888;2022-07-03T04:14:45;19.30;67.40
4050;DHT22;2039;50.894;6.888;2022-07-03T04:17:16;19.30;67.70
4050;DHT22;2039;50.894;6.888;2022-07-03T04:19:42;19.30;69.40
4050;DHT22;2039;50.894;6.888;2022-07-03T04:22:08;19.30;70.30
4050;DHT22;2039;50.894;6.888;2022-07-03T04:24:55;19.30;71.50
4050;DHT22;2039;50.894;6.888;2022-07-03T04:27:23;19.30;70.60
4050;DHT22;2039;50.894;6.888;2022-07-03T04:29:52;19.30;71.60
4050;DHT22;2039;50.894;6.888;2022-07-03T04:32:20;19.30;73.90
4050;DHT22;2039;50.894;6.888;2022-07-03T04:34:55;19.30;75.10
4050;DHT22;2039;50.894;6.888;2022-07-03T04:37:23;19.40;75.20
4050;DHT22;2039;50.894;6.888;2022-07-03T04:39:49;19.40;77.00
4050;DHT22;2039;50.894;6.888;2022-07-03T04:42:23;19.50;77.90
4050;DHT22;2039;50.894;6.888;2022-07-03T04:44:49;19.60;77.70
4050;DHT22;2039;50.894;6.888;2022-07-03T04:47:15;19.70;77.90
4050;DHT22;2039;50.894;6.888;2022-07-03T04:49:44;19.70;76.80
4050;DHT22;2039;50.894;6.888;2022-07-03T04:52:12;19.70;78.00
4050;DHT22;2039;50.894;6.888;2022-07-03T04:54:41;19.60;79.10
4050;DHT22;2039;50.894;6.888;2022-07-03T04:57:10;19.60;80.40
4050;DHT22;2039;50.894;6.888;2022-07-03T04:59:38;19.60;82.10
4050;DHT22;2039;50.894;6.888;2022-07-03T05:02:04;19.70;88.10
4050;DHT22;2039;50.894;6.888;2022-07-03T05:04:33;20.00;88.20
4050;DHT22;2039;50.894;6.888;2022-07-03T05:07:01;20.30;83.60
4050;DHT22;2039;50.894;6.888;2022-07-03T05:09:40;20.60;76.60
4050;DHT22;2039;50.894;6.888;2022-07-03T05:12:17;20.90;65.70
4050;DHT22;2039;50.894;6.888;2022-07-03T05:14:47;21.10;53.40
4050;DHT22;2039;50.894;6.888;2022-07-03T05:17:13;21.10;53.50
4050;DHT22;2039;50.894;6.888;2022-07-03T05:19:42;21.10;48.60
4050;DHT22;2039;50.894;6.888;2022-07-03T05:22:11;21.00;52.30
4050;DHT22;2039;50.894;6.888;2022-07-03T05:25:00;20.90;50.50
4050;DHT22;2039;50.894;6.888;2022-07-03T05:27:47;20.90;48.20
4050;DHT22;2039;50.894;6.888;2022-07-03T05:30:22;20.90;45.80
4050;DHT22;2039;50.894;6.888;2022-07-03T05:33:07;20.90;46.80
4050;DHT22;2039;50.894;6.888;2022-07-03T05:35:35;20.90;44.90
4050;DHT22;2039;50.894;6.888;2022-07-03T05:38:36;20.80;45.90
4050;DHT22;2039;50.894;6.888;2022-07-03T05:41:27;20.70;44.80
4050;DHT22;2039;50.894;6.888;2022-07-03T05:43:52;20.60;48.40
4050;DHT22;2039;50.894;6.888;2022-07-03T05:49:49;20.50;48.10
4050;DHT22;2039;50.894;6.888;2022-07-03T05:52:34;20.50;46.90
4050;DHT22;2039;50.894;6.888;2022-07-03T05:55:25;20.50;48.70
4050;DHT22;2039;50.894;6.888;2022-07-03T05:57:54;20.40;49.80
4050;DHT22;2039;50.894;6.888;2022-07-03T06:00:29;20.40;48.00
4050;DHT22;2039;50.894;6.888;2022-07-03T06:03:06;20.30;49.30
4050;DHT22;2039;50.894;6.888;2022-07-03T06:05:32;20.30;54.60
4050;DHT22;2039;50.894;6.888;2022-07-03T06:07:58;20.30;54.20
4050;DHT22;2039;50.894;6.888;2022-07-03T06:10:25;20.30;53.70
4050;DHT22;2039;50.894;6.888;2022-07-03T06:12:54;20.30;49.50
4050;DHT22;2039;50.894;6.888;2022-07-03T06:15:31;20.20;50.40
4050;DHT22;2039;50.894;6.888;2022-07-03T06:17:58;20.30;51.70
4050;DHT22;2039;50.894;6.888;2022-07-03T06:20:23;20.30;50.50
4050;DHT22;2039;50.894;6.888;2022-07-03T06:22:52;20.20;49.00
4050;DHT22;2039;50.894;6.888;2022-07-03T06:25:20;20.20;50.70
4050;DHT22;2039;50.894;6.888;2022-07-03T06:27:46;20.20;55.40
4050;DHT22;2039;50.894;6.888;2022-07-03T06:30:17;20.20;53.50
4050;DHT22;2039;50.894;6.888;2022-07-03T06:32:54;20.30;47.10
4050;DHT22;2039;50.894;6.888;2022-07-03T06:35:25;20.30;47.60
4050;DHT22;2039;50.894;6.888;2022-07-03T06:37:54;20.30;48.60
4050;DHT22;2039;50.894;6.888;2022-07-03T06:40:22;20.30;47.20
4050;DHT22;2039;50.894;6.888;2022-07-03T06:42:57;20.30;49.30
4050;DHT22;2039;50.894;6.888;2022-07-03T06:45:28;20.30;50.20
4050;DHT22;2039;50.894;6.888;2022-07-03T06:47:57;20.30;53.90
4050;DHT22;2039;50.894;6.888;2022-07-03T06:50:23;20.30;57.10
4050;DHT22;2039;50.894;6.888;2022-07-03T06:52:54;20.40;51.20
4050;DHT22;2039;50.894;6.888;2022-07-03T06:55:22;20.30;47.40
4050;DHT22;2039;50.894;6.888;2022-07-03T06:57:57;20.40;48.20
4050;DHT22;2039;50.894;6.888;2022-07-03T07:00:25;20.40;45.90
4050;DHT22;2039;50.894;6.888;2022-07-03T07:02:53;20.40;46.10
4050;DHT22;2039;50.894;6.888;2022-07-03T07:05:22;20.40;47.20
4050;DHT22;2039;50.894;6.888;2022-07-03T07:07:48;20.40;45.20
4050;DHT22;2039;50.894;6.888;2022-07-03T07:10:35;20.50;48.90
4050;DHT22;2039;50.894;6.888;2022-07-03T07:13:01;20.60;42.00
4050;DHT22;2039;50.894;6.888;2022-07-03T07:15:33;20.50;37.60
4050;DHT22;2039;50.894;6.888;2022-07-03T07:17:58;20.60;41.20
4050;DHT22;2039;50.894;6.888;2022-07-03T07:20:30;20.60;38.20
4050;DHT22;2039;50.894;6.888;2022-07-03T07:22:59;20.70;39.90
4050;DHT22;2039;50.894;6.888;2022-07-03T07:28:57;20.80;32.40
4050;DHT22;2039;50.894;6.888;2022-07-03T07:31:38;20.80;33.80
4050;DHT22;2039;50.894;6.888;2022-07-03T07:37:42;20.80;33.30
4050;DHT22;2039;50.894;6.888;2022-07-03T07:40:28;20.80;35.40
4050;DHT22;2039;50.894;6.888;2022-07-03T07:49:11;21.10;38.80
4050;DHT22;2039;50.894;6.888;2022-07-03T07:51:45;21.10;29.50
4050;DHT22;2039;50.894;6.888;2022-07-03T07:54:46;21.10;34.50
4050;DHT22;2039;50.894;6.888;2022-07-03T08:00:21;21.30;28.90
4050;DHT22;2039;50.894;6.888;2022-07-03T08:02:47;21.30;31.60
4050;DHT22;2039;50.894;6.888;2022-07-03T08:05:42;21.30;30.50
4050;DHT22;2039;50.894;6.888;2022-07-03T08:08:14;21.30;29.90
4050;DHT22;2039;50.894;6.888;2022-07-03T08:10:55;21.40;29.10
4050;DHT22;2039;50.894;6.888;2022-07-03T08:13:23;21.40;26.80
4050;DHT22;2039;50.894;6.888;2022-07-03T08:15:49;21.40;24.40
4050;DHT22;2039;50.894;6.888;2022-07-03T08:18:26;21.40;23.70
4050;DHT22;2039;50.894;6.888;2022-07-03T08:21:00;21.50;25.90
4050;DHT22;2039;50.894;6.888;2022-07-03T08:23:26;21.60;21.00
4050;DHT22;2039;50.894;6.888;2022-07-03T08:28:21;21.60;18.80
4050;DHT22;2039;50.894;6.888;2022-07-03T08:30:47;21.60;13.60
4050;DHT22;2039;50.894;6.888;2022-07-03T08:33:14;21.70;17.30
4050;DHT22;2039;50.894;6.888;2022-07-03T08:35:39;21.60;15.80
4050;DHT22;2039;50.894;6.888;2022-07-03T08:38:05;21.60;13.40
4050;DHT22;2039;50.894;6.888;2022-07-03T08:40:31;21.60;2.80
4050;DHT22;2039;50.894;6.888;2022-07-03T08:42:58;21.60;8.70
4050;DHT22;2039;50.894;6.888;2022-07-03T08:45:27;21.80;13.40
4050;DHT22;2039;50.894;6.888;2022-07-03T08:47:54;21.80;5.90
4050;DHT22;2039;50.894;6.888;2022-07-03T08:50:20;21.90;5.10
4050;DHT22;2039;50.894;6.888;2022-07-03T08:52:47;21.90;6.80
4050;DHT22;2039;50.894;6.888;2022-07-03T08:55:14;22.00;6.30
4050;DHT22;2039;50.894;6.888;2022-07-03T08:57:56;22.00;5.00
4050;DHT22;2039;50.894;6.888;2022-07-03T09:00:24;22.10;4.80
4050;DHT22;2039;50.894;6.888;2022-07-03T09:02:51;22.20;2.00
4050;DHT22;2039;50.894;6.888;2022-07-03T09:05:17;22.30;2.10
4050;DHT22;2039;50.894;6.888;2022-07-03T09:07:45;22.40;1.00
4050;DHT22;2039;50.894;6.888;2022-07-03T09:10:14;22.40;1.00
4050;DHT22;2039;50.894;6.888;2022-07-03T09:12:42;22.60;1.00
4050;DHT22;2039;50.894;6.888;2022-07-03T09:15:09;22.60;1.00
4050;DHT22;2039;50.894;6.888;2022-07-03T09:17:34;22.70;1.00
4050;DHT22;2039;50.894;6.888;2022-07-03T09:20:05;22.80;1.00
4050;DHT22;2039;50.894;6.888;2022-07-03T09:22:37;22.90;1.00
4050;DHT22;2039;50.894;6.888;2022-07-03T09:25:07;22.90;1.00
4050;DHT22;2039;50.894;6.888;2022-07-03T09:27:34;23.00;1.00
4050;DHT22;2039;50.894;6.888;2022-07-03T09:30:05;23.20;1.00
4050;DHT22;2039;50.894;6.888;2022-07-03T09:35:13;23.50;1.00
4050;DHT22;2039;50.894;6.888;2022-07-03T09:37:40;23.70;1.00
4050;DHT22;2039;50.894;6.888;2022-07-03T09:40:07;23.80;1.00
4050;DHT22;2039;50.894;6.888;2022-07-03T09:42:32;23.90;1.00
4050;DHT22;2039;50.894;6.888;2022-07-03T09:44:58;24.00;1.00
4050;DHT22;2039;50.894;6.888;2022-07-03T09:47:25;24.00;1.00
4050;DHT22;2039;50.894;6.888;2022-07-03T09:57:45;24.60;1.00
4050;DHT22;2039;50.894;6.888;2022-07-03T10:00:32;24.80;1.00
4050;DHT22;2039;50.894;6.888;2022-07-03T10:03:10;25.00;1.00
4050;DHT22;2039;50.894;6.888;2022-07-03T10:06:02;25.20;1.00
4050;DHT22;2039;50.894;6.888;2022-07-03T10:08:28;25.30;1.00
4050;DHT22;2039;50.894;6.888;2022-07-03T10:10:54;25.50;1.00
4050;DHT22;2039;50.894;6.888;2022-07-03T10:13:28;25.70;1.00
4050;DHT22;2039;50.894;6.888;2022-07-03T10:15:54;25.80;1.00
4050;DHT22;2039;50.894;6.888;2022-07-03T10:18:20;26.00;1.00
4050;DHT22;2039;50.894;6.888;2022-07-03T10:20:51;26.10;1.00
4050;DHT22;2039;50.894;6.888;2022-07-03T10:23:26;26.40;1.00
4050;DHT22;2039;50.894;6.888;2022-07-03T10:25:53;26.50;1.00
4050;DHT22;2039;50.894;6.888;2022-07-03T10:28:25;26.60;1.00
4050;DHT22;2039;50.894;6.888;2022-07-03T10:31:28;26.50;1.00
4050;DHT22;2039;50.894;6.888;2022-07-03T10:45:05;27.30;1.00
4050;DHT22;2039;50.894;6.888;2022-07-03T10:47:47;27.50;1.00
4050;DHT22;2039;50.894;6.888;2022-07-03T10:50:26;27.60;1.00
4050;DHT22;2039;50.894;6.888;2022-07-03T10:52:52;27.70;1.00
4050;DHT22;2039;50.894;6.888;2022-07-03T10:55:18;27.90;1.00
4050;DHT22;2039;50.894;6.888;2022-07-03T10:58:07;28.00;1.00
4050;DHT22;2039;50.894;6.888;2022-07-03T11:00:54;28.20;1.00
4050;DHT22;2039;50.894;6.888;2022-07-03T11:03:59;28.40;1.00
4050;DHT22;2039;50.894;6.888;2022-07-03T11:09:10;28.50;1.00
4050;DHT22;2039;50.894;6.888;2022-07-03T11:11:40;28.50;1.00
4050;DHT22;2039;50.894;6.888;2022-07-03T11:14:27;28.60;1.00
4050;DHT22;2039;50.894;6.888;2022-07-03T11:17:21;28.70;1.00
4050;DHT22;2039;50.894;6.888;2022-07-03T11:19:48;28.80;1.00
4050;DHT22;2039;50.894;6.888;2022-07-03T11:25:13;28.90;1.00
4050;DHT22;2039;50.894;6.888;2022-07-03T11:27:40;29.00;1.00
4050;DHT22;2039;50.894;6.888;2022-07-03T11:30:05;29.00;1.00
4050;DHT22;2039;50.894;6.888;2022-07-03T11:32:52;29.20;1.00
4050;DHT22;2039;50.894;6.888;2022-07-03T11:38:06;29.30;1.00
4050;DHT22;2039;50.894;6.888;2022-07-03T11:40:32;29.50;1.00
4050;DHT22;2039;50.894;6.888;2022-07-03T11:43:01;29.40;1.00
4050;DHT22;2039;50.894;6.888;2022-07-03T11:45:31;29.50;1.00
4050;DHT22;2039;50.894;6.888;2022-07-03T11:47:57;29.70;1.00
4050;DHT22;2039;50.894;6.888;2022-07-03T11:50:44;29.60;1.00
4050;DHT22;2039;50.894;6.888;2022-07-03T11:53:24;29.50;1.00
4050;DHT22;2039;50.894;6.888;2022-07-03T11:56:11;29.40;1.00
4050;DHT22;2039;50.894;6.888;2022-07-03T12:01:11;29.30;1.00
4050;DHT22;2039;50.894;6.888;2022-07-03T12:03:36;29.30;1.00
4050;DHT22;2039;50.894;6.888;2022-07-03T12:06:02;29.30;1.00
4050;DHT22;2039;50.894;6.888;2022-07-03T12:08:32;29.40;1.00
4050;DHT22;2039;50.894;6.888;2022-07-03T12:11:09;29.30;1.00
4050;DHT22;2039;50.894;6.888;2022-07-03T12:13:35;29.60;1.00
4050;DHT22;2039;50.894;6.888;2022-07-03T12:18:44;29.50;1.00
4050;DHT22;2039;50.894;6.888;2022-07-03T12:21:10;29.50;1.00
4050;DHT22;2039;50.894;6.888;2022-07-03T12:23:55;29.70;1.00
4050;DHT22;2039;50.894;6.888;2022-07-03T12:26:32;30.00;1.00
4050;DHT22;2039;50.894;6.888;2022-07-03T12:29:00;30.10;1.00
4050;DHT22;2039;50.894;6.888;2022-07-03T12:31:26;29.80;1.00
4050;DHT22;2039;50.894;6.888;2022-07-03T12:33:53;29.90;1.00
4050;DHT22;2039;50.894;6.888;2022-07-03T12:36:18;29.80;1.00
4050;DHT22;2039;50.894;6.888;2022-07-03T12:38:48;29.60;1.00
4050;DHT22;2039;50.894;6.888;2022-07-03T12:41:15;29.60;1.00
4050;DHT22;2039;50.894;6.888;2022-07-03T12:43:46;29.50;1.00
4050;DHT22;2039;50.894;6.888;2022-07-03T12:46:24;29.50;1.00
4050;DHT22;2039;50.894;6.888;2022-07-03T12:48:51;29.50;1.00
4050;DHT22;2039;50.894;6.888;2022-07-03T12:51:39;29.50;1.00
4050;DHT22;2039;50.894;6.888;2022-07-03T12:54:21;29.50;1.00
4050;DHT22;2039;50.894;6.888;2022-07-03T13:02:37;29.30;1.00
4050;DHT22;2039;50.894;6.888;2022-07-03T13:07:46;29.20;1.00
4050;DHT22;2039;50.894;6.888;2022-07-03T13:10:17;29.00;1.00
4050;DHT22;2039;50.894;6.888;2022-07-03T13:15:50;28.90;1.00
4050;DHT22;2039;50.894;6.888;2022-07-03T13:19:05;28.80;1.00
4050;DHT22;2039;50.894;6.888;2022-07-03T13:21:41;28.90;1.00
4050;DHT22;2039;50.894;6.888;2022-07-03T13:24:13;28.80;1.00
4050;DHT22;2039;50.894;6.888;2022-07-03T13:26:53;28.50;1.00
4050;DHT22;2039;50.894;6.888;2022-07-03T13:29:29;28.50;1.00
4050;DHT22;2039;50.894;6.888;2022-07-03T13:32:18;28.50;1.00
4050;DHT22;2039;50.894;6.888;2022-07-03T13:34:44;28.30;1.00
4050;DHT22;2039;50.894;6.888;2022-07-03T13:37:13;28.10;1.00
4050;DHT22;2039;50.894;6.888;2022-07-03T13:39:46;28.00;1.00
4050;DHT22;2039;50.894;6.888;2022-07-03T13:42:17;27.90;1.00
4050;DHT22;2039;50.894;6.888;2022-07-03T13:44:48;28.00;1.00
4050;DHT22;2039;50.894;6.888;2022-07-03T13:49:48;27.90;1.00
4050;DHT22;2039;50.894;6.888;2022-07-03T13:52:14;27.60;1.00
4050;DHT22;2039;50.894;6.888;2022-07-03T13:54:39;27.60;1.00
4050;DHT22;2039;50.894;6.888;2022-07-03T13:57:05;27.40;1.00
4050;DHT22;2039;50.894;6.888;2022-07-03T13:59:33;27.30;1.00
4050;DHT22;2039;50.894;6.888;2022-07-03T14:01:59;27.20;1.00
4050;DHT22;2039;50.894;6.888;2022-07-03T14:04:26;27.00;1.00
4050;DHT22;2039;50.894;6.888;2022-07-03T14:06:52;26.80;1.00
4050;DHT22;2039;50.894;6.888;2022-07-03T14:09:19;26.60;1.00
4050;DHT22;2039;50.894;6.888;2022-07-03T14:11:44;26.60;1.00
4050;DHT22;2039;50.894;6.888;2022-07-03T14:14:10;26.50;1.00
4050;DHT22;2039;50.894;6.888;2022-07-03T14:16:36;26.40;1.00
4050;DHT22;2039;50.894;6.888;2022-07-03T14:19:03;26.50;1.00
4050;DHT22;2039;50.894;6.888;2022-07-03T14:21:31;26.60;1.00
4050;DHT22;2039;50.894;6.888;2022-07-03T14:23:57;26.90;1.00
4050;DHT22;2039;50.894;6.888;2022-07-03T14:26:23;27.30;1.00
4050;DHT22;2039;50.894;6.888;2022-07-03T14:29:07;27.60;1.00
4050;DHT22;2039;50.894;6.888;2022-07-03T14:31:55;27.70;1.00
4050;DHT22;2039;50.894;6.888;2022-07-03T14:34:40;27.90;1.00
4050;DHT22;2039;50.894;6.888;2022-07-03T14:37:07;28.20;1.00
4050;DHT22;2039;50.894;6.888;2022-07-03T14:39:32;28.60;1.00
4050;DHT22;2039;50.894;6.888;2022-07-03T14:41:58;28.70;1.00
4050;DHT22;2039;50.894;6.888;2022-07-03T14:44:24;28.60;1.00
4050;DHT22;2039;50.894;6.888;2022-07-03T14:46:51;28.50;1.00
4050;DHT22;2039;50.894;6.888;2022-07-03T14:49:17;28.10;1.00
4050;DHT22;2039;50.894;6.888;2022-07-03T14:51:43;28.00;1.00
4050;DHT22;2039;50.894;6.888;2022-07-03T14:54:10;28.00;1.00
4050;DHT22;2039;50.894;6.888;2022-07-03T14:56:40;27.80;1.00
4050;DHT22;2039;50.894;6.888;2022-07-03T14:59:10;27.60;1.00
4050;DHT22;2039;50.894;6.888;2022-07-03T15:01:40;27.70;1.00
4050;DHT22;2039;50.894;6.888;2022-07-03T15:07:01;27.80;1.00
4050;DHT22;2039;50.894;6.888;2022-07-03T15:09:30;28.20;1.00
4050;DHT22;2039;50.894;6.888;2022-07-03T15:12:00;28.50;1.00
4050;DHT22;2039;50.894;6.888;2022-07-03T15:14:48;28.70;1.00
4050;DHT22;2039;50.894;6.888;2022-07-03T15:17:15;29.00;1.00
4050;DHT22;2039;50.894;6.888;2022-07-03T15:19:43;29.30;1.00
4050;DHT22;2039;50.894;6.888;2022-07-03T15:22:12;29.20;1.00
4050;DHT22;2039;50.894;6.888;2022-07-03T15:24:40;29.30;1.00
4050;DHT22;2039;50.894;6.888;2022-07-03T15:27:07;29.30;1.00
4050;DHT22;2039;50.894;6.888;2022-07-03T15:29:35;29.30;1.00
4050;DHT22;2039;50.894;6.888;2022-07-03T15:32:03;29.50;1.00
4050;DHT22;2039;50.894;6.888;2022-07-03T15:34:29;29.30;1.00
4050;DHT22;2039;50.894;6.888;2022-07-03T15:40:03;29.50;1.00
4050;DHT22;2039;50.894;6.888;2022-07-03T15:43:12;29.50;1.00
4050;DHT22;2039;50.894;6.888;2022-07-03T15:48:58;28.90;1.00
4050;DHT22;2039;50.894;6.888;2022-07-03T15:51:44;28.30;1.00
4050;DHT22;2039;50.894;6.888;2022-07-03T15:54:22;27.50;1.00
4050;DHT22;2039;50.894;6.888;2022-07-03T15:56:52;27.00;1.00
4050;DHT22;2039;50.894;6.888;2022-07-03T15:59:20;26.70;1.00
4050;DHT22;2039;50.894;6.888;2022-07-03T16:01:53;26.40;1.00
4050;DHT22;2039;50.894;6.888;2022-07-03T16:05:03;26.30;1.00
4050;DHT22;2039;50.894;6.888;2022-07-03T16:07:30;26.20;1.00
4050;DHT22;2039;50.894;6.888;2022-07-03T16:10:01;26.20;1.00
4050;DHT22;2039;50.894;6.888;2022-07-03T16:12:28;26.20;1.00
4050;DHT22;2039;50.894;6.888;2022-07-03T16:14:54;26.10;1.00
4050;DHT22;2039;50.894;6.888;2022-07-03T16:17:21;26.20;1.00
4050;DHT22;2039;50.894;6.888;2022-07-03T16:19:49;26.30;1.00
4050;DHT22;2039;50.894;6.888;2022-07-03T16:22:16;26.30;1.00
4050;DHT22;2039;50.894;6.888;2022-07-03T16:24:43;26.30;1.00
4050;DHT22;2039;50.894;6.888;2022-07-03T16:27:59;26.30;1.00
4050;DHT22;2039;50.894;6.888;2022-07-03T16:31:11;26.20;1.00
4050;DHT22;2039;50.894;6.888;2022-07-03T16:33:42;26.20;1.00
4050;DHT22;2039;50.894;6.888;2022-07-03T16:36:19;26.00;1.00
4050;DHT22;2039;50.894;6.888;2022-07-03T16:39:02;26.00;1.00
4050;DHT22;2039;50.894;6.888;2022-07-03T16:41:33;25.90;1.00
4050;DHT22;2039;50.894;6.888;2022-07-03T16:44:02;25.70;1.00
4050;DHT22;2039;50.894;6.888;2022-07-03T16:46:28;25.60;1.00
4050;DHT22;2039;50.894;6.888;2022-07-03T16:48:58;25.70;1.00
4050;DHT22;2039;50.894;6.888;2022-07-03T16:51:41;25.80;1.00
4050;DHT22;2039;50.894;6.888;2022-07-03T16:54:20;25.80;1.00
4050;DHT22;2039;50.894;6.888;2022-07-03T16:56:49;26.10;1.00
4050;DHT22;2039;50.894;6.888;2022-07-03T16:59:16;27.20;1.00
4050;DHT22;2039;50.894;6.888;2022-07-03T17:01:42;28.20;1.00
4050;DHT22;2039;50.894;6.888;2022-07-03T17:04:08;29.10;1.00
4050;DHT22;2039;50.894;6.888;2022-07-03T17:06:35;28.90;1.00
4050;DHT22;2039;50.894;6.888;2022-07-03T17:09:04;28.50;1.00
4050;DHT22;2039;50.894;6.888;2022-07-03T17:11:31;28.00;1.00
4050;DHT22;2039;50.894;6.888;2022-07-03T17:13:57;27.60;1.00
4050;DHT22;2039;50.894;6.888;2022-07-03T17:16:50;27.90;1.00
4050;DHT22;2039;50.894;6.888;2022-07-03T17:19:22;27.90;1.00
4050;DHT22;2039;50.894;6.888;2022-07-03T17:21:49;28.20;1.00
4050;DHT22;2039;50.894;6.888;2022-07-03T17:24:20;28.70;1.00
4050;DHT22;2039;50.894;6.888;2022-07-03T17:26:47;29.00;1.00
4050;DHT22;2039;50.894;6.888;2022-07-03T17:29:19;29.70;1.00
4050;DHT22;2039;50.894;6.888;2022-07-03T17:31:46;30.00;1.00
4050;DHT22;2039;50.894;6.888;2022-07-03T17:34:19;30.50;1.00
4050;DHT22;2039;50.894;6.888;2022-07-03T17:36:47;30.60;1.00
4050;DHT22;2039;50.894;6.888;2022-07-03T17:39:17;30.50;1.00
4050;DHT22;2039;50.894;6.888;2022-07-03T17:41:48;30.10;1.00
4050;DHT22;2039;50.894;6.888;2022-07-03T17:44:15;29.60;1.00
4050;DHT22;2039;50.894;6.888;2022-07-03T17:46:43;29.50;1.00
4050;DHT22;2039;50.894;6.888;2022-07-03T17:49:15;29.00;1.00
4050;DHT22;2039;50.894;6.888;2022-07-03T17:51:44;28.40;1.00
4050;DHT22;2039;50.894;6.888;2022-07-03T17:54:13;27.80;1.00
4050;DHT22;2039;50.894;6.888;2022-07-03T17:56:40;27.10;1.00
4050;DHT22;2039;50.894;6.888;2022-07-03T17:59:07;26.80;1.00
4050;DHT22;2039;50.894;6.888;2022-07-03T18:01:34;26.40;1.00
4050;DHT22;2039;50.894;6.888;2022-07-03T18:03:59;26.10;1.00
4050;DHT22;2039;50.894;6.888;2022-07-03T18:06:28;26.00;1.00
4050;DHT22;2039;50.894;6.888;2022-07-03T18:09:00;25.90;1.00
4050;DHT22;2039;50.894;6.888;2022-07-03T18:16:59;25.60;1.00
4050;DHT22;2039;50.894;6.888;2022-07-03T18:19:27;25.50;1.00
4050;DHT22;2039;50.894;6.888;2022-07-03T18:21:58;25.40;1.00
4050;DHT22;2039;50.894;6.888;2022-07-03T18:24:27;25.50;1.00
4050;DHT22;2039;50.894;6.888;2022-07-03T18:27:04;25.50;1.00
4050;DHT22;2039;50.894;6.888;2022-07-03T18:29:31;25.30;1.00
4050;DHT22;2039;50.894;6.888;2022-07-03T18:31:58;25.00;1.00
4050;DHT22;2039;50.894;6.888;2022-07-03T18:34:26;25.00;1.00
4050;DHT22;2039;50.894;6.888;2022-07-03T18:36:53;25.00;1.00